sensor_id;sensor_type;location;lat;lon;timestamp;P1;durP1;ratioP1;P2;durP2;ratioP2
19509;SDS011;9896;42.486;26.506;2023-08-12T00:02:12;5.83;;;4.53;;
19509;SDS011;9896;42.486;26.506;2023-08-12T00:04:37;9.30;;;5.10;;
19509;SDS011;9896;42.486;26.506;2023-08-12T00:07:03;6.90;;;5.27;;
19509;SDS011;9896;42.486;26.506;2023-08-12T00:09:28;5.43;;;4.93;;
19509;SDS011;9896;42.486;26.506;2023-08-12T00:11:54;6.57;;;4.77;;
19509;SDS011;9896;42.486;26.506;2023-08-12T00:14:19;6.20;;;4.43;;
19509;SDS011;9896;42.486;26.506;2023-08-12T00:16:45;5.73;;;4.60;;
19509;SDS011;9896;42.486;26.506;2023-08-12T00:19:10;6.50;;;5.40;;
19509;SDS011;9896;42.486;26.506;2023-08-12T00:21:35;7.03;;;5.03;;
19509;SDS011;9896;42.486;26.506;2023-08-12T00:24:01;8.70;;;4.73;;
19509;SDS011;9896;42.486;26.506;2023-08-12T00:26:26;5.90;;;5.10;;
19509;SDS011;9896;42.486;26.506;2023-08-12T00:28:52;7.47;;;4.80;;
19509;SDS011;9896;42.486;26.506;2023-08-12T00:31:18;5.53;;;5.03;;
19509;SDS011;9896;42.486;26.506;2023-08-12T00:33:43;6.73;;;5.37;;
19509;SDS011;9896;42.486;26.506;2023-08-12T00:36:09;8.20;;;5.17;;
19509;SDS011;9896;42.486;26.506;2023-08-12T00:38:34;5.90;;;5.13;;
19509;SDS011;9896;42.486;26.506;2023-08-12T00:41:00;7.47;;;5.30;;
19509;SDS011;9896;42.486;26.506;2023-08-12T00:43:25;6.73;;;4.70;;
19509;SDS011;9896;42.486;26.506;2023-08-12T00:45:51;8.80;;;5.33;;
19509;SDS011;9896;42.486;26.506;2023-08-12T00:48:16;9.20;;;5.40;;
19509;SDS011;9896;42.486;26.506;2023-08-12T00:50:42;6.33;;;5.57;;
19509;SDS011;9896;42.486;26.506;2023-08-12T00:53:08;6.10;;;4.90;;
19509;SDS011;9896;42.486;26.506;2023-08-12T00:55:33;8.87;;;5.50;;
19509;SDS011;9896;42.486;26.506;2023-08-12T00:57:59;8.63;;;6.03;;
19509;SDS011;9896;42.486;26.506;2023-08-12T01:00:25;6.27;;;5.67;;
19509;SDS011;9896;42.486;26.506;2023-08-12T01:02:50;7.77;;;5.97;;
19509;SDS011;9896;42.486;26.506;2023-08-12T01:05:17;9.70;;;6.30;;
19509;SDS011;9896;42.486;26.506;2023-08-12T01:07:42;10.20;;;6.13;;
19509;SDS011;9896;42.486;26.506;2023-08-12T01:10:08;11.97;;;6.73;;
19509;SDS011;9896;42.486;26.506;2023-08-12T01:12:41;8.03;;;6.10;;
19509;SDS011;9896;42.486;26.506;2023-08-12T01:15:17;7.43;;;5.80;;
19509;SDS011;9896;42.486;26.506;2023-08-12T01:17:47;8.90;;;6.00;;
19509;SDS011;9896;42.486;26.506;2023-08-12T01:20:17;8.63;;;6.93;;
19509;SDS011;9896;42.486;26.506;2023-08-12T01:22:49;8.50;;;6.70;;
19509;SDS011;9896;42.486;26.506;2023-08-12T01:25:17;9.77;;;5.90;;
19509;SDS011;9896;42.486;26.506;2023-08-12T01:27:43;10.90;;;6.27;;
19509;SDS011;9896;42.486;26.506;2023-08-12T01:30:08;10.13;;;6.07;;
19509;SDS011;9896;42.486;26.506;2023-08-12T01:32:38;12.80;;;6.80;;
19509;SDS011;9896;42.486;26.506;2023-08-12T01:37:36;11.47;;;7.43;;
19509;SDS011;9896;42.486;26.506;2023-08-12T01:40:03;9.87;;;7.10;;
19509;SDS011;9896;42.486;26.506;2023-08-12T01:42:29;8.97;;;7.20;;
19509;SDS011;9896;42.486;26.506;2023-08-12T01:44:55;9.80;;;7.60;;
19509;SDS011;9896;42.486;26.506;2023-08-12T01:47:21;11.07;;;7.97;;
19509;SDS011;9896;42.486;26.506;2023-08-12T01:49:46;9.10;;;8.20;;
19509;SDS011;9896;42.486;26.506;2023-08-12T01:52:11;13.50;;;8.30;;
19509;SDS011;9896;42.486;26.506;2023-08-12T01:54:37;9.70;;;8.27;;
19509;SDS011;9896;42.486;26.506;2023-08-12T01:57:03;10.37;;;7.87;;
19509;SDS011;9896;42.486;26.506;2023-08-12T01:59:33;11.03;;;8.10;;
19509;SDS011;9896;42.486;26.506;2023-08-12T02:01:58;9.63;;;8.23;;
19509;SDS011;9896;42.486;26.506;2023-08-12T02:04:24;10.30;;;7.80;;
19509;SDS011;9896;42.486;26.506;2023-08-12T02:06:50;9.80;;;8.80;;
19509;SDS011;9896;42.486;26.506;2023-08-12T02:09:15;10.03;;;7.40;;
19509;SDS011;9896;42.486;26.506;2023-08-12T02:11:40;10.80;;;7.93;;
19509;SDS011;9896;42.486;26.506;2023-08-12T02:14:06;8.20;;;7.13;;
19509;SDS011;9896;42.486;26.506;2023-08-12T02:16:31;9.67;;;7.87;;
19509;SDS011;9896;42.486;26.506;2023-08-12T02:18:57;11.87;;;8.00;;
19509;SDS011;9896;42.486;26.506;2023-08-12T02:21:22;8.33;;;7.43;;
19509;SDS011;9896;42.486;26.506;2023-08-12T02:23:47;7.40;;;6.67;;
19509;SDS011;9896;42.486;26.506;2023-08-12T02:26:13;10.40;;;6.53;;
19509;SDS011;9896;42.486;26.506;2023-08-12T02:28:38;7.87;;;6.90;;
19509;SDS011;9896;42.486;26.506;2023-08-12T02:31:03;7.57;;;6.77;;
19509;SDS011;9896;42.486;26.506;2023-08-12T02:33:29;7.33;;;6.57;;
19509;SDS011;9896;42.486;26.506;2023-08-12T02:35:54;10.40;;;6.87;;
19509;SDS011;9896;42.486;26.506;2023-08-12T02:38:20;8.87;;;6.60;;
19509;SDS011;9896;42.486;26.506;2023-08-12T02:40:48;11.93;;;8.10;;
19509;SDS011;9896;42.486;26.506;2023-08-12T02:43:14;12.30;;;8.37;;
19509;SDS011;9896;42.486;26.506;2023-08-12T02:45:40;9.97;;;6.77;;
19509;SDS011;9896;42.486;26.506;2023-08-12T02:48:05;7.77;;;6.30;;
19509;SDS011;9896;42.486;26.506;2023-08-12T02:50:31;10.33;;;6.47;;
19509;SDS011;9896;42.486;26.506;2023-08-12T02:52:56;9.27;;;6.70;;
19509;SDS011;9896;42.486;26.506;2023-08-12T02:55:22;7.33;;;6.23;;
19509;SDS011;9896;42.486;26.506;2023-08-12T02:57:47;9.37;;;6.57;;
19509;SDS011;9896;42.486;26.506;2023-08-12T03:00:12;9.77;;;6.57;;
19509;SDS011;9896;42.486;26.506;2023-08-12T03:02:38;8.33;;;5.90;;
19509;SDS011;9896;42.486;26.506;2023-08-12T03:05:08;8.03;;;6.43;;
19509;SDS011;9896;42.486;26.506;2023-08-12T03:07:34;6.57;;;5.40;;
19509;SDS011;9896;42.486;26.506;2023-08-12T03:09:59;8.33;;;6.20;;
19509;SDS011;9896;42.486;26.506;2023-08-12T03:12:25;5.77;;;5.10;;
19509;SDS011;9896;42.486;26.506;2023-08-12T03:14:50;5.83;;;5.20;;
19509;SDS011;9896;42.486;26.506;2023-08-12T03:17:15;9.07;;;5.13;;
19509;SDS011;9896;42.486;26.506;2023-08-12T03:19:41;5.80;;;4.60;;
19509;SDS011;9896;42.486;26.506;2023-08-12T03:22:07;5.73;;;4.90;;
19509;SDS011;9896;42.486;26.506;2023-08-12T03:24:32;4.97;;;4.40;;
19509;SDS011;9896;42.486;26.506;2023-08-12T03:26:58;6.17;;;5.27;;
19509;SDS011;9896;42.486;26.506;2023-08-12T03:29:23;7.33;;;5.00;;
19509;SDS011;9896;42.486;26.506;2023-08-12T03:31:48;7.70;;;5.03;;
19509;SDS011;9896;42.486;26.506;2023-08-12T03:34:14;6.70;;;4.83;;
19509;SDS011;9896;42.486;26.506;2023-08-12T03:36:39;8.87;;;6.40;;
19509;SDS011;9896;42.486;26.506;2023-08-12T03:39:05;6.87;;;6.17;;
19509;SDS011;9896;42.486;26.506;2023-08-12T03:41:31;6.80;;;5.43;;
19509;SDS011;9896;42.486;26.506;2023-08-12T03:43:56;8.33;;;5.63;;
19509;SDS011;9896;42.486;26.506;2023-08-12T03:46:22;8.60;;;5.83;;
19509;SDS011;9896;42.486;26.506;2023-08-12T03:48:47;8.40;;;6.10;;
19509;SDS011;9896;42.486;26.506;2023-08-12T03:51:12;12.50;;;6.47;;
19509;SDS011;9896;42.486;26.506;2023-08-12T03:53:38;14.40;;;7.93;;
19509;SDS011;9896;42.486;26.506;2023-08-12T03:56:03;10.37;;;6.17;;
19509;SDS011;9896;42.486;26.506;2023-08-12T03:58:29;11.13;;;7.23;;
19509;SDS011;9896;42.486;26.506;2023-08-12T04:00:54;10.40;;;5.60;;
19509;SDS011;9896;42.486;26.506;2023-08-12T04:03:20;8.37;;;7.00;;
19509;SDS011;9896;42.486;26.506;2023-08-12T04:05:51;13.50;;;9.07;;
19509;SDS011;9896;42.486;26.506;2023-08-12T04:08:21;10.07;;;7.80;;
19509;SDS011;9896;42.486;26.506;2023-08-12T04:10:47;12.13;;;7.67;;
19509;SDS011;9896;42.486;26.506;2023-08-12T04:13:13;12.70;;;7.70;;
19509;SDS011;9896;42.486;26.506;2023-08-12T04:15:38;10.03;;;7.43;;
19509;SDS011;9896;42.486;26.506;2023-08-12T04:18:04;7.77;;;6.20;;
19509;SDS011;9896;42.486;26.506;2023-08-12T04:20:29;9.90;;;6.60;;
19509;SDS011;9896;42.486;26.506;2023-08-12T04:22:55;10.13;;;6.40;;
19509;SDS011;9896;42.486;26.506;2023-08-12T04:25:21;11.87;;;7.60;;
19509;SDS011;9896;42.486;26.506;2023-08-12T04:27:46;8.43;;;6.10;;
19509;SDS011;9896;42.486;26.506;2023-08-12T04:30:13;9.30;;;6.13;;
19509;SDS011;9896;42.486;26.506;2023-08-12T04:32:39;8.20;;;6.67;;
19509;SDS011;9896;42.486;26.506;2023-08-12T04:35:04;11.77;;;6.90;;
19509;SDS011;9896;42.486;26.506;2023-08-12T04:37:30;11.87;;;7.27;;
19509;SDS011;9896;42.486;26.506;2023-08-12T04:39:57;10.97;;;6.77;;
19509;SDS011;9896;42.486;26.506;2023-08-12T04:42:22;13.07;;;6.50;;
19509;SDS011;9896;42.486;26.506;2023-08-12T04:44:48;14.90;;;7.57;;
19509;SDS011;9896;42.486;26.506;2023-08-12T04:47:13;11.47;;;6.40;;
19509;SDS011;9896;42.486;26.506;2023-08-12T04:49:39;11.10;;;6.70;;
19509;SDS011;9896;42.486;26.506;2023-08-12T04:52:05;10.97;;;7.33;;
19509;SDS011;9896;42.486;26.506;2023-08-12T04:54:32;9.90;;;7.03;;
19509;SDS011;9896;42.486;26.506;2023-08-12T04:56:57;12.90;;;7.27;;
19509;SDS011;9896;42.486;26.506;2023-08-12T04:59:22;8.53;;;7.03;;
19509;SDS011;9896;42.486;26.506;2023-08-12T05:01:48;13.37;;;6.83;;
19509;SDS011;9896;42.486;26.506;2023-08-12T05:04:13;10.33;;;6.73;;
19509;SDS011;9896;42.486;26.506;2023-08-12T05:06:39;9.27;;;6.60;;
19509;SDS011;9896;42.486;26.506;2023-08-12T05:09:05;9.70;;;6.60;;
19509;SDS011;9896;42.486;26.506;2023-08-12T05:11:30;10.27;;;6.77;;
19509;SDS011;9896;42.486;26.506;2023-08-12T05:13:56;7.97;;;6.10;;
19509;SDS011;9896;42.486;26.506;2023-08-12T05:16:21;8.50;;;6.27;;
19509;SDS011;9896;42.486;26.506;2023-08-12T05:18:47;9.43;;;5.80;;
19509;SDS011;9896;42.486;26.506;2023-08-12T05:21:12;6.30;;;5.47;;
19509;SDS011;9896;42.486;26.506;2023-08-12T05:23:37;6.33;;;4.57;;
19509;SDS011;9896;42.486;26.506;2023-08-12T05:26:03;6.03;;;4.73;;
19509;SDS011;9896;42.486;26.506;2023-08-12T05:28:28;8.17;;;5.30;;
19509;SDS011;9896;42.486;26.506;2023-08-12T05:30:54;7.57;;;5.10;;
19509;SDS011;9896;42.486;26.506;2023-08-12T05:33:20;102.03;;;12.13;;
19509;SDS011;9896;42.486;26.506;2023-08-12T05:35:49;5.03;;;4.53;;
19509;SDS011;9896;42.486;26.506;2023-08-12T05:38:14;5.77;;;4.23;;
19509;SDS011;9896;42.486;26.506;2023-08-12T05:40:40;7.33;;;4.60;;
19509;SDS011;9896;42.486;26.506;2023-08-12T05:43:05;9.57;;;5.20;;
19509;SDS011;9896;42.486;26.506;2023-08-12T05:45:31;7.13;;;4.07;;
19509;SDS011;9896;42.486;26.506;2023-08-12T05:47:56;4.43;;;3.80;;
19509;SDS011;9896;42.486;26.506;2023-08-12T05:50:22;6.70;;;4.60;;
19509;SDS011;9896;42.486;26.506;2023-08-12T05:52:47;6.30;;;3.77;;
19509;SDS011;9896;42.486;26.506;2023-08-12T05:55:13;4.67;;;4.10;;
19509;SDS011;9896;42.486;26.506;2023-08-12T05:57:38;6.40;;;4.00;;
19509;SDS011;9896;42.486;26.506;2023-08-12T06:00:04;6.57;;;4.27;;
19509;SDS011;9896;42.486;26.506;2023-08-12T06:02:29;8.53;;;4.53;;
19509;SDS011;9896;42.486;26.506;2023-08-12T06:04:55;4.77;;;3.83;;
19509;SDS011;9896;42.486;26.506;2023-08-12T06:07:20;5.13;;;4.20;;
19509;SDS011;9896;42.486;26.506;2023-08-12T06:09:46;7.23;;;4.20;;
19509;SDS011;9896;42.486;26.506;2023-08-12T06:12:11;10.40;;;3.77;;
19509;SDS011;9896;42.486;26.506;2023-08-12T06:14:39;5.33;;;4.20;;
19509;SDS011;9896;42.486;26.506;2023-08-12T06:17:05;4.80;;;4.10;;
19509;SDS011;9896;42.486;26.506;2023-08-12T06:19:30;6.93;;;3.77;;
19509;SDS011;9896;42.486;26.506;2023-08-12T06:21:56;4.83;;;3.30;;
19509;SDS011;9896;42.486;26.506;2023-08-12T06:24:21;5.40;;;3.60;;
19509;SDS011;9896;42.486;26.506;2023-08-12T06:26:46;3.77;;;3.40;;
19509;SDS011;9896;42.486;26.506;2023-08-12T06:29:12;5.33;;;3.13;;
19509;SDS011;9896;42.486;26.506;2023-08-12T06:31:37;4.23;;;3.60;;
19509;SDS011;9896;42.486;26.506;2023-08-12T06:34:03;3.90;;;3.20;;
19509;SDS011;9896;42.486;26.506;2023-08-12T06:36:28;5.97;;;3.70;;
19509;SDS011;9896;42.486;26.506;2023-08-12T06:38:54;4.17;;;3.27;;
19509;SDS011;9896;42.486;26.506;2023-08-12T06:41:19;4.90;;;3.20;;
19509;SDS011;9896;42.486;26.506;2023-08-12T06:43:44;7.20;;;3.40;;
19509;SDS011;9896;42.486;26.506;2023-08-12T06:46:10;4.77;;;3.57;;
19509;SDS011;9896;42.486;26.506;2023-08-12T06:48:35;5.67;;;3.67;;
19509;SDS011;9896;42.486;26.506;2023-08-12T06:51:01;8.33;;;3.93;;
19509;SDS011;9896;42.486;26.506;2023-08-12T06:53:32;3.90;;;3.30;;
19509;SDS011;9896;42.486;26.506;2023-08-12T06:55:57;4.97;;;3.42;;
19509;SDS011;9896;42.486;26.506;2023-08-12T06:58:22;5.70;;;3.83;;
19509;SDS011;9896;42.486;26.506;2023-08-12T07:00:48;7.47;;;3.80;;
19509;SDS011;9896;42.486;26.506;2023-08-12T07:03:13;5.13;;;4.18;;
19509;SDS011;9896;42.486;26.506;2023-08-12T07:05:38;5.70;;;3.70;;
19509;SDS011;9896;42.486;26.506;2023-08-12T07:08:04;3.83;;;3.40;;
19509;SDS011;9896;42.486;26.506;2023-08-12T07:10:29;5.95;;;4.10;;
19509;SDS011;9896;42.486;26.506;2023-08-12T07:12:54;4.70;;;4.20;;
19509;SDS011;9896;42.486;26.506;2023-08-12T07:15:20;6.07;;;4.57;;
19509;SDS011;9896;42.486;26.506;2023-08-12T07:17:45;5.97;;;3.40;;
19509;SDS011;9896;42.486;26.506;2023-08-12T07:20:11;6.78;;;3.85;;
19509;SDS011;9896;42.486;26.506;2023-08-12T07:22:36;6.50;;;3.83;;
19509;SDS011;9896;42.486;26.506;2023-08-12T07:25:01;5.57;;;3.85;;
19509;SDS011;9896;42.486;26.506;2023-08-12T07:27:27;11.45;;;4.40;;
19509;SDS011;9896;42.486;26.506;2023-08-12T07:29:52;20.67;;;5.18;;
19509;SDS011;9896;42.486;26.506;2023-08-12T07:32:18;7.78;;;3.80;;
19509;SDS011;9896;42.486;26.506;2023-08-12T07:34:44;6.10;;;3.90;;
19509;SDS011;9896;42.486;26.506;2023-08-12T07:37:10;4.85;;;3.78;;
19509;SDS011;9896;42.486;26.506;2023-08-12T07:39:35;4.15;;;3.60;;
19509;SDS011;9896;42.486;26.506;2023-08-12T07:42:01;7.30;;;3.90;;
19509;SDS011;9896;42.486;26.506;2023-08-12T07:44:26;6.72;;;3.65;;
19509;SDS011;9896;42.486;26.506;2023-08-12T07:46:51;4.40;;;3.85;;
19509;SDS011;9896;42.486;26.506;2023-08-12T07:49:17;3.75;;;3.30;;
19509;SDS011;9896;42.486;26.506;2023-08-12T07:51:42;5.85;;;3.97;;
19509;SDS011;9896;42.486;26.506;2023-08-12T07:54:07;6.65;;;3.25;;
19509;SDS011;9896;42.486;26.506;2023-08-12T07:56:33;5.65;;;3.55;;
19509;SDS011;9896;42.486;26.506;2023-08-12T07:58:58;4.85;;;3.50;;
19509;SDS011;9896;42.486;26.506;2023-08-12T08:01:23;5.18;;;3.50;;
19509;SDS011;9896;42.486;26.506;2023-08-12T08:03:49;5.30;;;3.50;;
19509;SDS011;9896;42.486;26.506;2023-08-12T08:06:14;5.18;;;3.55;;
19509;SDS011;9896;42.486;26.506;2023-08-12T08:08:40;9.13;;;4.68;;
19509;SDS011;9896;42.486;26.506;2023-08-12T08:11:05;8.10;;;3.75;;
19509;SDS011;9896;42.486;26.506;2023-08-12T08:13:31;9.60;;;3.38;;
19509;SDS011;9896;42.486;26.506;2023-08-12T08:15:57;5.07;;;3.50;;
19509;SDS011;9896;42.486;26.506;2023-08-12T08:18:22;6.97;;;3.15;;
19509;SDS011;9896;42.486;26.506;2023-08-12T08:20:48;5.35;;;3.35;;
19509;SDS011;9896;42.486;26.506;2023-08-12T08:23:13;4.40;;;3.35;;
19509;SDS011;9896;42.486;26.506;2023-08-12T08:25:38;4.22;;;3.42;;
19509;SDS011;9896;42.486;26.506;2023-08-12T08:28:04;3.85;;;3.20;;
19509;SDS011;9896;42.486;26.506;2023-08-12T08:30:29;4.68;;;3.60;;
19509;SDS011;9896;42.486;26.506;2023-08-12T08:32:55;5.30;;;3.20;;
19509;SDS011;9896;42.486;26.506;2023-08-12T08:35:20;5.53;;;3.70;;
19509;SDS011;9896;42.486;26.506;2023-08-12T08:37:45;3.53;;;3.05;;
19509;SDS011;9896;42.486;26.506;2023-08-12T08:40:11;4.10;;;3.28;;
19509;SDS011;9896;42.486;26.506;2023-08-12T08:42:37;3.30;;;2.92;;
19509;SDS011;9896;42.486;26.506;2023-08-12T08:45:03;4.82;;;3.58;;
19509;SDS011;9896;42.486;26.506;2023-08-12T08:47:29;4.25;;;2.95;;
19509;SDS011;9896;42.486;26.506;2023-08-12T08:49:55;4.53;;;3.30;;
19509;SDS011;9896;42.486;26.506;2023-08-12T08:52:21;4.95;;;3.42;;
19509;SDS011;9896;42.486;26.506;2023-08-12T08:54:47;5.45;;;3.30;;
19509;SDS011;9896;42.486;26.506;2023-08-12T08:57:12;5.68;;;3.42;;
19509;SDS011;9896;42.486;26.506;2023-08-12T08:59:37;5.32;;;3.80;;
19509;SDS011;9896;42.486;26.506;2023-08-12T09:02:03;10.93;;;4.20;;
19509;SDS011;9896;42.486;26.506;2023-08-12T09:04:29;7.30;;;3.40;;
19509;SDS011;9896;42.486;26.506;2023-08-12T09:06:55;3.15;;;2.67;;
19509;SDS011;9896;42.486;26.506;2023-08-12T09:09:21;4.53;;;3.30;;
19509;SDS011;9896;42.486;26.506;2023-08-12T09:11:48;7.55;;;3.20;;
19509;SDS011;9896;42.486;26.506;2023-08-12T09:14:14;4.30;;;3.00;;
19509;SDS011;9896;42.486;26.506;2023-08-12T09:16:39;3.72;;;2.92;;
19509;SDS011;9896;42.486;26.506;2023-08-12T09:19:05;4.22;;;3.30;;
19509;SDS011;9896;42.486;26.506;2023-08-12T09:21:31;7.00;;;3.20;;
19509;SDS011;9896;42.486;26.506;2023-08-12T09:23:56;7.80;;;3.30;;
19509;SDS011;9896;42.486;26.506;2023-08-12T09:26:21;3.65;;;3.00;;
19509;SDS011;9896;42.486;26.506;2023-08-12T09:28:47;5.05;;;3.60;;
19509;SDS011;9896;42.486;26.506;2023-08-12T09:31:29;7.60;;;2.97;;
19509;SDS011;9896;42.486;26.506;2023-08-12T09:34:04;3.55;;;2.95;;
19509;SDS011;9896;42.486;26.506;2023-08-12T09:36:32;4.63;;;3.00;;
19509;SDS011;9896;42.486;26.506;2023-08-12T09:38:58;6.03;;;2.90;;
19509;SDS011;9896;42.486;26.506;2023-08-12T09:41:26;5.13;;;3.60;;
19509;SDS011;9896;42.486;26.506;2023-08-12T09:43:52;4.03;;;2.67;;
19509;SDS011;9896;42.486;26.506;2023-08-12T09:46:21;4.30;;;2.97;;
19509;SDS011;9896;42.486;26.506;2023-08-12T09:48:49;4.95;;;3.50;;
19509;SDS011;9896;42.486;26.506;2023-08-12T09:51:14;4.15;;;3.20;;
19509;SDS011;9896;42.486;26.506;2023-08-12T09:53:41;8.00;;;3.00;;
19509;SDS011;9896;42.486;26.506;2023-08-12T09:56:07;6.88;;;3.65;;
19509;SDS011;9896;42.486;26.506;2023-08-12T09:58:33;5.55;;;3.10;;
19509;SDS011;9896;42.486;26.506;2023-08-12T10:01:01;3.88;;;2.97;;
19509;SDS011;9896;42.486;26.506;2023-08-12T10:03:27;3.75;;;2.90;;
19509;SDS011;9896;42.486;26.506;2023-08-12T10:05:54;6.00;;;3.47;;
19509;SDS011;9896;42.486;26.506;2023-08-12T10:08:19;3.75;;;3.45;;
19509;SDS011;9896;42.486;26.506;2023-08-12T10:10:45;12.45;;;8.73;;
19509;SDS011;9896;42.486;26.506;2023-08-12T10:13:10;5.22;;;3.30;;
19509;SDS011;9896;42.486;26.506;2023-08-12T10:15:36;5.30;;;3.20;;
19509;SDS011;9896;42.486;26.506;2023-08-12T10:18:03;10.02;;;3.00;;
19509;SDS011;9896;42.486;26.506;2023-08-12T10:20:28;7.68;;;3.20;;
19509;SDS011;9896;42.486;26.506;2023-08-12T10:22:55;4.13;;;3.35;;
19509;SDS011;9896;42.486;26.506;2023-08-12T10:25:20;7.00;;;3.13;;
19509;SDS011;9896;42.486;26.506;2023-08-12T10:27:49;3.60;;;2.95;;
19509;SDS011;9896;42.486;26.506;2023-08-12T10:30:14;9.95;;;3.08;;
19509;SDS011;9896;42.486;26.506;2023-08-12T10:32:40;5.20;;;3.20;;
19509;SDS011;9896;42.486;26.506;2023-08-12T10:35:06;5.47;;;3.25;;
19509;SDS011;9896;42.486;26.506;2023-08-12T10:37:32;5.15;;;3.65;;
19509;SDS011;9896;42.486;26.506;2023-08-12T10:39:58;5.63;;;3.38;;
19509;SDS011;9896;42.486;26.506;2023-08-12T10:42:42;4.53;;;3.15;;
19509;SDS011;9896;42.486;26.506;2023-08-12T10:45:11;5.43;;;3.35;;
19509;SDS011;9896;42.486;26.506;2023-08-12T10:50:24;7.65;;;3.50;;
19509;SDS011;9896;42.486;26.506;2023-08-12T10:52:51;7.00;;;3.55;;
19509;SDS011;9896;42.486;26.506;2023-08-12T10:55:17;5.00;;;3.10;;
19509;SDS011;9896;42.486;26.506;2023-08-12T10:57:43;4.90;;;3.35;;
19509;SDS011;9896;42.486;26.506;2023-08-12T11:03:03;6.32;;;3.58;;
19509;SDS011;9896;42.486;26.506;2023-08-12T11:05:37;7.75;;;3.45;;
19509;SDS011;9896;42.486;26.506;2023-08-12T11:08:02;4.93;;;3.17;;
19509;SDS011;9896;42.486;26.506;2023-08-12T11:10:31;3.55;;;3.25;;
19509;SDS011;9896;42.486;26.506;2023-08-12T11:12:57;3.90;;;3.00;;
19509;SDS011;9896;42.486;26.506;2023-08-12T11:15:42;5.32;;;3.50;;
19509;SDS011;9896;42.486;26.506;2023-08-12T11:18:09;3.15;;;2.72;;
19509;SDS011;9896;42.486;26.506;2023-08-12T11:20:36;3.40;;;3.10;;
19509;SDS011;9896;42.486;26.506;2023-08-12T11:23:02;4.53;;;3.50;;
19509;SDS011;9896;42.486;26.506;2023-08-12T11:25:28;8.30;;;4.25;;
19509;SDS011;9896;42.486;26.506;2023-08-12T11:27:54;9.27;;;3.55;;
19509;SDS011;9896;42.486;26.506;2023-08-12T11:30:20;5.20;;;3.17;;
19509;SDS011;9896;42.486;26.506;2023-08-12T11:32:46;5.55;;;3.30;;
19509;SDS011;9896;42.486;26.506;2023-08-12T11:35:12;5.15;;;3.83;;
19509;SDS011;9896;42.486;26.506;2023-08-12T11:37:39;7.22;;;3.40;;
19509;SDS011;9896;42.486;26.506;2023-08-12T11:40:05;7.03;;;3.55;;
19509;SDS011;9896;42.486;26.506;2023-08-12T11:42:31;5.90;;;3.70;;
19509;SDS011;9896;42.486;26.506;2023-08-12T11:44:56;4.78;;;3.25;;
19509;SDS011;9896;42.486;26.506;2023-08-12T11:47:22;6.85;;;3.83;;
19509;SDS011;9896;42.486;26.506;2023-08-12T11:49:47;4.55;;;3.42;;
19509;SDS011;9896;42.486;26.506;2023-08-12T11:52:13;4.93;;;3.25;;
19509;SDS011;9896;42.486;26.506;2023-08-12T11:54:39;7.38;;;2.97;;
19509;SDS011;9896;42.486;26.506;2023-08-12T11:57:04;3.95;;;2.90;;
19509;SDS011;9896;42.486;26.506;2023-08-12T11:59:30;3.30;;;3.00;;
19509;SDS011;9896;42.486;26.506;2023-08-12T12:01:56;5.38;;;3.10;;
19509;SDS011;9896;42.486;26.506;2023-08-12T12:04:21;4.10;;;3.17;;
19509;SDS011;9896;42.486;26.506;2023-08-12T12:06:46;4.32;;;3.10;;
19509;SDS011;9896;42.486;26.506;2023-08-12T12:09:15;3.83;;;2.92;;
19509;SDS011;9896;42.486;26.506;2023-08-12T12:11:43;6.72;;;3.28;;
19509;SDS011;9896;42.486;26.506;2023-08-12T12:14:09;7.78;;;3.15;;
19509;SDS011;9896;42.486;26.506;2023-08-12T12:16:38;4.75;;;3.25;;
19509;SDS011;9896;42.486;26.506;2023-08-12T12:19:04;4.18;;;2.80;;
19509;SDS011;9896;42.486;26.506;2023-08-12T12:21:38;3.35;;;2.70;;
19509;SDS011;9896;42.486;26.506;2023-08-12T12:24:03;4.28;;;2.70;;
19509;SDS011;9896;42.486;26.506;2023-08-12T12:26:29;5.88;;;2.90;;
19509;SDS011;9896;42.486;26.506;2023-08-12T12:28:54;3.97;;;2.80;;
19509;SDS011;9896;42.486;26.506;2023-08-12T12:31:19;3.10;;;2.80;;
19509;SDS011;9896;42.486;26.506;2023-08-12T12:33:45;4.55;;;2.80;;
19509;SDS011;9896;42.486;26.506;2023-08-12T12:36:10;5.55;;;2.78;;
19509;SDS011;9896;42.486;26.506;2023-08-12T12:38:36;3.10;;;2.80;;
19509;SDS011;9896;42.486;26.506;2023-08-12T12:41:01;3.13;;;2.75;;
19509;SDS011;9896;42.486;26.506;2023-08-12T12:43:26;3.72;;;2.80;;
19509;SDS011;9896;42.486;26.506;2023-08-12T12:45:52;3.42;;;2.92;;
19509;SDS011;9896;42.486;26.506;2023-08-12T12:48:17;8.32;;;2.92;;
19509;SDS011;9896;42.486;26.506;2023-08-12T12:50:43;2.88;;;2.50;;
19509;SDS011;9896;42.486;26.506;2023-08-12T12:53:08;3.28;;;2.78;;
19509;SDS011;9896;42.486;26.506;2023-08-12T12:55:33;3.20;;;2.40;;
19509;SDS011;9896;42.486;26.506;2023-08-12T12:57:59;6.53;;;2.97;;
19509;SDS011;9896;42.486;26.506;2023-08-12T13:00:25;3.53;;;2.70;;
19509;SDS011;9896;42.486;26.506;2023-08-12T13:02:51;8.20;;;2.65;;
19509;SDS011;9896;42.486;26.506;2023-08-12T13:05:16;3.55;;;2.70;;
19509;SDS011;9896;42.486;26.506;2023-08-12T13:07:42;5.53;;;3.17;;
19509;SDS011;9896;42.486;26.506;2023-08-12T13:10:07;5.05;;;3.00;;
19509;SDS011;9896;42.486;26.506;2023-08-12T13:12:32;5.45;;;3.00;;
19509;SDS011;9896;42.486;26.506;2023-08-12T13:14:58;5.18;;;2.80;;
19509;SDS011;9896;42.486;26.506;2023-08-12T13:17:24;5.72;;;3.10;;
19509;SDS011;9896;42.486;26.506;2023-08-12T13:19:49;3.97;;;3.20;;
19509;SDS011;9896;42.486;26.506;2023-08-12T13:22:14;3.55;;;3.20;;
19509;SDS011;9896;42.486;26.506;2023-08-12T13:24:40;5.30;;;2.90;;
19509;SDS011;9896;42.486;26.506;2023-08-12T13:27:05;3.35;;;3.05;;
19509;SDS011;9896;42.486;26.506;2023-08-12T13:29:33;5.25;;;3.40;;
19509;SDS011;9896;42.486;26.506;2023-08-12T13:31:58;7.78;;;2.90;;
19509;SDS011;9896;42.486;26.506;2023-08-12T13:34:23;4.15;;;3.50;;
19509;SDS011;9896;42.486;26.506;2023-08-12T13:36:49;6.60;;;3.28;;
19509;SDS011;9896;42.486;26.506;2023-08-12T13:39:14;4.20;;;2.50;;
19509;SDS011;9896;42.486;26.506;2023-08-12T13:41:40;3.88;;;2.70;;
19509;SDS011;9896;42.486;26.506;2023-08-12T13:44:06;5.75;;;3.20;;
19509;SDS011;9896;42.486;26.506;2023-08-12T13:46:31;5.75;;;3.38;;
19509;SDS011;9896;42.486;26.506;2023-08-12T13:48:56;3.92;;;3.22;;
19509;SDS011;9896;42.486;26.506;2023-08-12T13:51:22;4.55;;;3.20;;
19509;SDS011;9896;42.486;26.506;2023-08-12T13:53:47;6.57;;;3.30;;
19509;SDS011;9896;42.486;26.506;2023-08-12T13:56:12;7.50;;;3.30;;
19509;SDS011;9896;42.486;26.506;2023-08-12T13:58:38;5.95;;;3.53;;
19509;SDS011;9896;42.486;26.506;2023-08-12T14:01:03;4.40;;;3.22;;
19509;SDS011;9896;42.486;26.506;2023-08-12T14:03:28;7.00;;;3.28;;
19509;SDS011;9896;42.486;26.506;2023-08-12T14:05:54;6.72;;;3.05;;
19509;SDS011;9896;42.486;26.506;2023-08-12T14:08:19;5.22;;;3.20;;
19509;SDS011;9896;42.486;26.506;2023-08-12T14:10:48;4.90;;;3.30;;
19509;SDS011;9896;42.486;26.506;2023-08-12T14:13:13;4.70;;;3.00;;
19509;SDS011;9896;42.486;26.506;2023-08-12T14:15:39;9.90;;;3.28;;
19509;SDS011;9896;42.486;26.506;2023-08-12T14:18:05;4.80;;;3.25;;
19509;SDS011;9896;42.486;26.506;2023-08-12T14:20:30;7.72;;;3.40;;
19509;SDS011;9896;42.486;26.506;2023-08-12T14:22:56;7.85;;;3.63;;
19509;SDS011;9896;42.486;26.506;2023-08-12T14:25:22;4.10;;;3.47;;
19509;SDS011;9896;42.486;26.506;2023-08-12T14:27:47;4.05;;;3.30;;
19509;SDS011;9896;42.486;26.506;2023-08-12T14:30:13;3.97;;;3.28;;
19509;SDS011;9896;42.486;26.506;2023-08-12T14:32:38;5.43;;;2.90;;
19509;SDS011;9896;42.486;26.506;2023-08-12T14:35:03;4.47;;;3.33;;
19509;SDS011;9896;42.486;26.506;2023-08-12T14:37:30;4.03;;;3.47;;
19509;SDS011;9896;42.486;26.506;2023-08-12T14:39:55;8.98;;;3.25;;
19509;SDS011;9896;42.486;26.506;2023-08-12T14:42:21;6.80;;;3.80;;
19509;SDS011;9896;42.486;26.506;2023-08-12T14:44:46;6.45;;;3.25;;
19509;SDS011;9896;42.486;26.506;2023-08-12T14:47:12;6.72;;;3.30;;